createdAt,value
2018-09-04T00:02:51.602Z,4.47
2018-09-04T00:05:52.615Z,5.07
2018-09-04T00:08:52.870Z,4.47
2018-09-04T00:11:53.576Z,4.27
2018-09-04T00:14:53.022Z,4.97
2018-09-04T00:17:55.090Z,4.80
2018-09-04T00:20:54.311Z,4.83
2018-09-04T00:23:56.472Z,4.60
2018-09-04T00:26:56.753Z,4.70
2018-09-04T00:29:57.446Z,5.57
2018-09-04T00:32:58.324Z,4.93
2018-09-04T00:35:58.347Z,5.53
2018-09-04T00:38:57.665Z,4.83
2018-09-04T00:41:57.513Z,5.37
2018-09-04T00:44:56.838Z,5.73
2018-09-04T00:47:57.861Z,4.87
2018-09-04T00:50:57.698Z,4.80
2018-09-04T00:53:57.584Z,4.73
2018-09-04T00:56:59.050Z,4.43
2018-09-04T00:59:58.668Z,5.93
2018-09-04T01:02:58.174Z,5.17
2018-09-04T01:05:58.823Z,6.90
2018-09-04T01:08:58.555Z,5.60
2018-09-04T01:11:59.416Z,6.00
2018-09-04T01:14:58.285Z,4.77
2018-09-04T01:17:58.498Z,5.30
2018-09-04T01:20:59.134Z,4.47
2018-09-04T01:23:58.904Z,5.23
2018-09-04T01:26:59.198Z,5.37
2018-09-04T01:29:58.626Z,5.57
2018-09-04T01:32:58.189Z,5.23
2018-09-04T01:35:58.672Z,5.20
2018-09-04T01:38:58.350Z,5.00
2018-09-04T01:41:59.324Z,4.70
2018-09-04T01:44:59.684Z,4.77
2018-09-04T01:47:59.678Z,4.93
2018-09-04T01:50:58.784Z,4.40
2018-09-04T01:54:00.010Z,5.17
2018-09-04T01:56:59.816Z,5.03
2018-09-04T01:59:59.320Z,4.30
2018-09-04T02:02:58.974Z,5.03
2018-09-04T02:05:59.044Z,5.17
2018-09-04T02:09:00.059Z,5.50
2018-09-04T02:12:00.018Z,6.03
2018-09-04T02:15:00.125Z,4.73
2018-09-04T02:18:00.065Z,4.60
2018-09-04T02:20:59.392Z,5.23
2018-09-04T02:24:00.887Z,4.57
2018-09-04T02:27:00.366Z,5.40
2018-09-04T02:30:00.612Z,6.47
2018-09-04T02:33:00.412Z,5.27
2018-09-04T02:36:01.182Z,5.93
2018-09-04T02:39:01.812Z,5.03
2018-09-04T02:42:01.899Z,5.07
2018-09-04T02:45:01.315Z,4.63
2018-09-04T02:48:02.680Z,6.20
2018-09-04T02:51:02.176Z,5.80
2018-09-04T02:54:02.246Z,5.10
2018-09-04T02:57:03.567Z,5.60
2018-09-04T03:00:02.731Z,5.70
2018-09-04T03:03:03.498Z,5.93
2018-09-04T03:06:03.575Z,5.03
2018-09-04T03:09:03.846Z,6.07
2018-09-04T03:12:03.470Z,5.67
2018-09-04T03:15:04.520Z,5.47
2018-09-04T03:18:05.306Z,6.23
2018-09-04T03:21:07.256Z,5.67
2018-09-04T03:24:07.327Z,5.80
2018-09-04T03:27:07.190Z,5.70
2018-09-04T03:30:07.586Z,5.23
2018-09-04T03:33:08.073Z,5.37
2018-09-04T03:36:08.060Z,5.40
2018-09-04T03:39:08.300Z,5.17
2018-09-04T03:42:09.106Z,5.07
2018-09-04T03:45:08.866Z,5.60
2018-09-04T03:48:08.012Z,5.73
2018-09-04T03:51:07.292Z,5.67
2018-09-04T03:54:08.356Z,5.07
2018-09-04T03:57:09.136Z,6.00
2018-09-04T04:00:09.020Z,6.10
2018-09-04T04:03:09.496Z,5.63
2018-09-04T04:06:09.554Z,5.60
2018-09-04T04:09:10.251Z,5.03
2018-09-04T04:12:10.117Z,4.30
2018-09-04T04:15:09.770Z,5.30
2018-09-04T04:18:09.624Z,4.57
2018-09-04T04:21:11.362Z,4.57
2018-09-04T04:24:10.386Z,3.93
2018-09-04T04:27:10.457Z,4.07
2018-09-04T04:30:10.948Z,3.70
2018-09-04T04:33:12.058Z,3.53
2018-09-04T04:36:12.348Z,3.67
2018-09-04T04:39:11.684Z,4.40
2018-09-04T04:42:11.227Z,3.40
2018-09-04T04:45:11.089Z,2.80
2018-09-04T04:48:11.012Z,3.40
2018-09-04T04:51:11.336Z,2.90
2018-09-04T04:54:13.134Z,3.20
2018-09-04T04:57:13.451Z,2.90
2018-09-04T05:00:13.742Z,2.77
2018-09-04T05:03:13.388Z,2.90
2018-09-04T05:06:13.952Z,3.40
2018-09-04T05:09:13.484Z,2.60
2018-09-04T05:12:14.220Z,2.30
2018-09-04T05:15:15.538Z,2.50
2018-09-04T05:18:16.114Z,2.40
2018-09-04T05:21:15.672Z,2.37
2018-09-04T05:24:15.126Z,2.37
2018-09-04T05:27:15.400Z,1.97
2018-09-04T05:30:16.319Z,2.07
2018-09-04T05:33:21.186Z,2.70
2018-09-04T05:36:19.918Z,2.00
2018-09-04T05:39:21.318Z,2.03
2018-09-04T05:44:28.344Z,2.13
2018-09-04T05:47:27.992Z,2.30
2018-09-04T05:50:27.750Z,1.90
2018-09-04T05:53:27.141Z,1.90
2018-09-04T05:56:26.797Z,1.70
2018-09-04T05:59:27.086Z,1.70
2018-09-04T06:02:27.322Z,1.87
2018-09-04T06:05:27.223Z,1.90
2018-09-04T06:08:26.671Z,1.70
2018-09-04T06:11:27.458Z,1.50
2018-09-04T06:14:27.781Z,1.83
2018-09-04T06:17:27.906Z,1.50
2018-09-04T06:20:27.340Z,1.70
2018-09-04T06:23:27.000Z,1.60
2018-09-04T06:26:27.278Z,1.40
2018-09-04T06:29:26.894Z,1.40
2018-09-04T06:32:26.794Z,1.70
2018-09-04T06:35:28.137Z,1.40
2018-09-04T06:38:28.984Z,1.40
2018-09-04T06:41:28.254Z,1.33
2018-09-04T06:44:28.812Z,1.53
2018-09-04T06:47:29.030Z,1.80
2018-09-04T06:50:28.459Z,1.60
2018-09-04T06:53:28.328Z,1.77
2018-09-04T06:56:28.183Z,1.50
2018-09-04T06:59:28.033Z,1.50
2018-09-04T07:02:30.829Z,1.20
2018-09-04T07:05:30.803Z,1.43
2018-09-04T07:08:29.085Z,1.50
2018-09-04T07:11:30.205Z,1.33
2018-09-04T07:14:29.435Z,1.30
2018-09-04T07:17:29.822Z,1.63
2018-09-04T07:20:29.783Z,1.33
2018-09-04T07:23:29.446Z,1.30
2018-09-04T07:26:29.252Z,1.10
2018-09-04T07:29:29.571Z,1.47
2018-09-04T07:32:29.658Z,1.47
2018-09-04T07:35:30.034Z,1.67
2018-09-04T07:38:29.150Z,1.40
2018-09-04T07:41:30.606Z,1.90
2018-09-04T07:44:31.394Z,2.10
2018-09-04T07:47:32.985Z,1.60
2018-09-04T07:50:31.940Z,2.30
2018-09-04T07:53:31.590Z,1.50
2018-09-04T07:56:31.792Z,1.53
2018-09-04T07:59:30.900Z,1.50
2018-09-04T08:02:31.804Z,2.97
2018-09-04T08:05:31.432Z,1.50
2018-09-04T08:08:32.160Z,1.67
2018-09-04T08:11:31.377Z,1.70
2018-09-04T08:14:32.393Z,1.63
2018-09-04T08:17:31.327Z,1.67
2018-09-04T08:20:31.044Z,1.50
2018-09-04T08:23:30.829Z,1.53
2018-09-04T08:26:29.850Z,1.40
2018-09-04T08:29:29.521Z,1.40
2018-09-04T08:32:29.578Z,1.70
2018-09-04T08:35:29.849Z,1.40
2018-09-04T08:38:29.940Z,1.60
2018-09-04T08:41:30.632Z,1.50
2018-09-04T08:44:30.891Z,1.43
2018-09-04T08:47:30.566Z,1.50
2018-09-04T08:50:30.218Z,1.60
2018-09-04T08:53:32.309Z,1.73
2018-09-04T08:56:31.792Z,1.60
2018-09-04T08:59:31.675Z,1.30
2018-09-04T09:02:31.765Z,1.80
2018-09-04T09:05:31.566Z,1.43
2018-09-04T09:08:32.705Z,1.50
2018-09-04T09:11:32.566Z,1.70
2018-09-04T09:14:32.730Z,1.50
2018-09-04T09:17:32.697Z,1.63
2018-09-04T09:20:34.765Z,3.03
2018-09-04T09:23:35.972Z,2.10
2018-09-04T09:26:47.336Z,1.60
2018-09-04T09:29:46.769Z,1.60
2018-09-04T09:32:45.773Z,1.60
2018-09-04T09:35:45.230Z,2.17
2018-09-04T09:38:44.615Z,1.63
2018-09-04T09:41:45.164Z,2.23
2018-09-04T09:44:44.931Z,2.00
2018-09-04T09:47:47.786Z,2.17
2018-09-04T09:50:47.825Z,1.90
2018-09-04T09:53:48.166Z,1.90
2018-09-04T09:56:48.525Z,2.00
2018-09-04T09:59:48.561Z,2.00
2018-09-04T10:02:54.219Z,2.10
2018-09-04T10:05:54.624Z,2.07
2018-09-04T10:08:53.515Z,2.03
2018-09-04T10:11:53.583Z,1.80
2018-09-04T10:14:54.497Z,1.70
2018-09-04T10:17:54.917Z,2.60
2018-09-04T10:20:54.417Z,2.00
2018-09-04T10:23:55.740Z,2.30
2018-09-04T10:26:56.017Z,2.20
2018-09-04T10:29:56.031Z,2.50
2018-09-04T10:33:00.344Z,2.37
2018-09-04T10:36:01.072Z,2.40
2018-09-04T10:39:04.581Z,2.50
2018-09-04T10:42:05.629Z,2.30
2018-09-04T10:45:06.045Z,2.57
2018-09-04T10:48:07.996Z,2.40
2018-09-04T10:51:09.121Z,2.40
2018-09-04T10:54:09.247Z,2.40
2018-09-04T10:57:09.469Z,4.27
2018-09-04T11:00:09.098Z,2.30
2018-09-04T11:03:08.985Z,2.50
2018-09-04T11:06:09.734Z,2.50
2018-09-04T11:09:09.776Z,2.87
2018-09-04T11:12:11.057Z,3.83
2018-09-04T11:15:12.616Z,2.57
2018-09-04T11:18:12.157Z,2.60
2018-09-04T11:21:13.478Z,3.67
2018-09-04T11:24:14.260Z,2.80
2018-09-04T11:27:13.911Z,2.67
2018-09-04T11:30:14.607Z,3.53
2018-09-04T11:33:14.786Z,2.73
2018-09-04T11:36:16.012Z,2.90
2018-09-04T11:39:18.034Z,4.37
2018-09-04T11:42:16.631Z,2.73
2018-09-04T11:45:16.424Z,3.10
2018-09-04T11:48:16.815Z,3.70
2018-09-04T11:51:19.808Z,2.73
2018-09-04T11:54:19.756Z,3.37
2018-09-04T11:57:20.671Z,3.43
2018-09-04T12:00:23.658Z,3.20
2018-09-04T12:03:24.575Z,3.87
2018-09-04T12:06:24.284Z,3.50
2018-09-04T12:09:24.699Z,3.63
2018-09-04T12:12:29.443Z,4.10
2018-09-04T12:15:28.588Z,3.93
2018-09-04T12:18:27.418Z,4.67
2018-09-04T12:21:28.048Z,4.47
2018-09-04T12:24:30.276Z,4.10
2018-09-04T12:27:30.268Z,3.90
2018-09-04T12:30:32.306Z,3.63
2018-09-04T12:33:33.102Z,3.97
2018-09-04T12:36:33.122Z,3.97
2018-09-04T12:39:32.921Z,3.70
2018-09-04T12:42:32.473Z,3.83
2018-09-04T12:45:32.014Z,3.93
2018-09-04T12:48:38.492Z,4.20
2018-09-04T12:51:39.462Z,4.10
2018-09-04T12:54:41.421Z,5.13
2018-09-04T12:57:42.483Z,6.33
2018-09-04T13:00:42.124Z,4.03
2018-09-04T13:03:43.102Z,4.07
2018-09-04T13:06:43.911Z,4.30
2018-09-04T13:09:44.158Z,4.03
2018-09-04T13:12:46.426Z,5.20
2018-09-04T13:15:46.074Z,3.93
2018-09-04T13:18:45.000Z,4.13
2018-09-04T13:21:45.578Z,4.10
2018-09-04T13:24:47.971Z,4.73
2018-09-04T13:27:47.625Z,6.57
2018-09-04T13:30:47.476Z,4.10
2018-09-04T13:33:47.123Z,5.03
2018-09-04T13:36:46.891Z,3.93
2018-09-04T13:39:47.256Z,4.40
2018-09-04T13:42:46.446Z,4.60
2018-09-04T13:45:46.156Z,4.50
2018-09-04T13:48:46.214Z,4.70
2018-09-04T13:51:46.915Z,5.53
2018-09-04T13:54:46.563Z,4.70
2018-09-04T13:57:46.223Z,4.83
2018-09-04T14:00:48.372Z,5.03
2018-09-04T14:03:49.767Z,5.27
2018-09-04T14:06:51.437Z,4.87
2018-09-04T14:09:52.012Z,4.90
2018-09-04T14:12:52.756Z,5.70
2018-09-04T14:15:52.894Z,5.73
2018-09-04T14:18:53.514Z,5.73
2018-09-04T14:21:54.858Z,6.00
2018-09-04T14:24:54.360Z,6.33
2018-09-04T14:27:55.272Z,6.67
2018-09-04T14:30:55.764Z,6.27
2018-09-04T14:33:54.854Z,5.43
2018-09-04T14:36:55.206Z,6.13
2018-09-04T14:39:56.041Z,6.27
2018-09-04T14:42:55.542Z,6.90
2018-09-04T14:45:54.855Z,7.40
2018-09-04T14:48:54.288Z,8.40
2018-09-04T14:51:55.406Z,6.70
2018-09-04T14:54:56.309Z,6.97
2018-09-04T14:57:58.158Z,6.77
2018-09-04T15:00:59.206Z,6.90
2018-09-04T15:03:58.611Z,8.37
2018-09-04T15:06:57.967Z,8.20
2018-09-04T15:10:01.460Z,6.73
2018-09-04T15:13:01.739Z,9.47
2018-09-04T15:16:01.929Z,9.57
2018-09-04T15:19:02.424Z,9.60
2018-09-04T15:22:03.432Z,10.90
2018-09-04T15:25:03.919Z,7.90
2018-09-04T15:28:04.981Z,10.20
2018-09-04T15:31:04.155Z,9.27
2018-09-04T15:34:04.273Z,8.90
2018-09-04T15:37:05.466Z,8.13
2018-09-04T15:40:05.089Z,7.20
2018-09-04T15:43:05.155Z,7.60
2018-09-04T15:46:10.064Z,7.80
2018-09-04T15:49:14.271Z,8.43
2018-09-04T15:52:14.756Z,6.67
2018-09-04T15:55:14.128Z,6.10
2018-09-04T15:58:14.068Z,7.03
2018-09-04T16:01:15.031Z,6.30
2018-09-04T16:04:16.285Z,7.37
2018-09-04T16:07:15.740Z,6.37
2018-09-04T16:10:16.530Z,5.60
2018-09-04T16:13:16.818Z,5.90
2018-09-04T16:16:16.010Z,5.40
2018-09-04T16:19:18.316Z,6.13
2018-09-04T16:22:19.208Z,5.60
2018-09-04T16:25:19.914Z,5.47
2018-09-04T16:28:19.481Z,5.83
2018-09-04T16:31:19.216Z,4.70
2018-09-04T16:34:18.710Z,4.87
2018-09-04T16:37:19.046Z,4.40
2018-09-04T16:40:18.435Z,4.37
2018-09-04T16:43:19.712Z,4.57
2018-09-04T16:46:20.178Z,4.33
2018-09-04T16:49:20.890Z,4.80
2018-09-04T16:52:21.188Z,4.50
2018-09-04T16:55:20.182Z,4.40
2018-09-04T16:58:20.465Z,4.47
2018-09-04T17:01:20.738Z,4.10
2018-09-04T17:04:21.529Z,3.90
2018-09-04T17:07:21.725Z,4.10
2018-09-04T17:10:21.410Z,3.60
2018-09-04T17:13:23.132Z,3.60
2018-09-04T17:16:22.758Z,3.93
2018-09-04T17:19:22.794Z,3.83
2018-09-04T17:22:26.039Z,4.87
2018-09-04T17:25:26.518Z,3.87
2018-09-04T17:28:26.588Z,5.53
2018-09-04T17:31:26.492Z,3.83
2018-09-04T17:34:27.150Z,3.20
2018-09-04T17:37:26.684Z,4.17
2018-09-04T17:40:26.446Z,3.53
2018-09-04T17:43:25.592Z,5.23
2018-09-04T17:46:25.344Z,4.20
2018-09-04T17:49:24.930Z,3.47
2018-09-04T17:52:25.892Z,3.53
2018-09-04T17:55:25.663Z,4.33
2018-09-04T17:58:26.656Z,4.57
2018-09-04T18:01:26.723Z,4.33
2018-09-04T18:04:26.177Z,5.07
2018-09-04T18:07:25.722Z,4.53
2018-09-04T18:10:25.967Z,4.43
2018-09-04T18:13:25.958Z,4.27
2018-09-04T18:16:25.827Z,4.30
2018-09-04T18:19:24.843Z,4.57
2018-09-04T18:22:25.543Z,4.63
2018-09-04T18:25:24.682Z,4.23
2018-09-04T18:28:25.054Z,4.57
2018-09-04T18:31:25.760Z,4.50
2018-09-04T18:34:26.712Z,5.13
2018-09-04T18:37:26.527Z,4.20
2018-09-04T18:40:26.587Z,4.30
2018-09-04T18:43:27.726Z,5.00
2018-09-04T18:46:27.566Z,4.23
2018-09-04T18:49:26.428Z,5.87
2018-09-04T18:52:27.909Z,4.87
2018-09-04T18:55:27.351Z,4.53
2018-09-04T18:58:26.790Z,4.00
2018-09-04T19:01:25.817Z,5.30
2018-09-04T19:04:26.100Z,4.50
2018-09-04T19:07:25.434Z,4.63
2018-09-04T19:10:25.203Z,4.97
2018-09-04T19:13:25.680Z,5.87
2018-09-04T19:16:25.330Z,4.77
2018-09-04T19:19:25.332Z,4.10
2018-09-04T19:22:25.478Z,5.90
2018-09-04T19:25:24.910Z,4.53
2018-09-04T19:28:24.144Z,4.77
2018-09-04T19:31:23.892Z,4.70
2018-09-04T19:34:25.029Z,4.97
2018-09-04T19:37:24.606Z,5.63
2018-09-04T19:40:24.633Z,4.80
2018-09-04T19:43:25.538Z,4.40
2018-09-04T19:46:25.945Z,4.53
2018-09-04T19:49:24.700Z,4.33
2018-09-04T19:52:25.339Z,4.30
2018-09-04T19:55:24.679Z,4.60
2018-09-04T19:58:24.962Z,4.60
2018-09-04T20:01:24.284Z,5.37
2018-09-04T20:04:24.469Z,4.97
2018-09-04T20:07:23.432Z,4.63
2018-09-04T20:10:23.668Z,4.97
2018-09-04T20:13:22.741Z,4.73
2018-09-04T20:16:24.222Z,4.77
2018-09-04T20:19:24.076Z,4.67
2018-09-04T20:22:29.062Z,5.00
2018-09-04T20:25:29.856Z,4.80
2018-09-04T20:28:30.668Z,4.63
2018-09-04T20:31:29.959Z,4.90
2018-09-04T20:34:29.994Z,4.37
2018-09-04T20:37:29.627Z,4.27
2018-09-04T20:40:30.352Z,4.87
2018-09-04T20:43:30.276Z,5.03
2018-09-04T20:46:31.604Z,4.50
2018-09-04T20:49:31.670Z,5.10
2018-09-04T20:55:34.936Z,5.00
2018-09-04T20:58:40.228Z,4.53
2018-09-04T21:01:45.947Z,4.33
2018-09-04T21:04:50.614Z,5.47
2018-09-04T21:08:00.244Z,4.27
2018-09-04T21:11:00.232Z,4.30
2018-09-04T21:14:00.629Z,4.70
2018-09-04T21:17:01.175Z,5.00
2018-09-04T21:20:01.188Z,5.13
2018-09-04T21:23:00.210Z,4.23
2018-09-04T21:25:59.830Z,4.50
2018-09-04T21:29:00.767Z,4.40
2018-09-04T21:32:00.426Z,4.97
2018-09-04T21:35:00.698Z,4.40
2018-09-04T21:38:00.351Z,4.83
2018-09-04T21:41:00.798Z,4.80
2018-09-04T21:43:59.654Z,5.20
2018-09-04T21:47:01.184Z,4.70
2018-09-04T21:50:01.782Z,4.63
2018-09-04T21:53:01.512Z,4.90
2018-09-04T21:56:00.985Z,5.37
2018-09-04T21:59:01.995Z,4.73
2018-09-04T22:02:01.681Z,4.73
2018-09-04T22:05:01.396Z,4.27
2018-09-04T22:08:00.752Z,5.47
2018-09-04T22:11:00.294Z,4.57
2018-09-04T22:13:59.722Z,4.27
2018-09-04T22:16:59.588Z,5.23
2018-09-04T22:19:58.971Z,4.17
2018-09-04T22:23:00.147Z,5.27
2018-09-04T22:25:59.278Z,4.80
2018-09-04T22:29:00.288Z,4.70
2018-09-04T22:32:00.141Z,4.67
2018-09-04T22:34:59.911Z,4.97
2018-09-04T22:37:59.652Z,4.50
2018-09-04T22:41:00.561Z,4.60
2018-09-04T22:43:59.423Z,4.70
2018-09-04T22:46:59.666Z,4.80
2018-09-04T22:50:04.232Z,5.10
2018-09-04T22:53:04.921Z,4.47
2018-09-04T22:56:04.669Z,5.40
2018-09-04T22:59:03.482Z,4.77
2018-09-04T23:02:01.903Z,4.87
2018-09-04T23:05:03.631Z,5.53
2018-09-04T23:08:02.622Z,4.90
2018-09-04T23:11:02.011Z,4.80
2018-09-04T23:14:03.831Z,4.57
2018-09-04T23:17:04.466Z,5.60
2018-09-04T23:20:03.891Z,4.40
2018-09-04T23:23:05.764Z,5.00
2018-09-04T23:26:05.987Z,5.43
2018-09-04T23:29:04.807Z,5.20
2018-09-04T23:32:05.675Z,4.57
2018-09-04T23:35:05.789Z,4.33
2018-09-04T23:38:05.636Z,5.17
2018-09-04T23:41:06.347Z,5.00
2018-09-04T23:44:06.407Z,4.73
2018-09-04T23:47:05.012Z,5.03
2018-09-04T23:50:05.292Z,5.20
2018-09-04T23:53:05.161Z,4.90
2018-09-04T23:56:05.021Z,5.67
2018-09-04T23:59:06.572Z,4.47
